Oxford, Kansas
Current Conditions -  °F | °C
As of 2:54 AM on Wednesday 22 Oct 2014 (Local Time) from KWLD Reporting Station
Clear Clear  
Wind Chill: 63°   Ceiling: Unl
Heat Index: 63°   Visibility: 10mi
Dew Point: 59°   Wind: 7mph
Humidity: 87%   Direction: 160°SSE
Pressure: 30.07"   Gusts: NA
Location:  37.27°N, 97.17°W
Report Text: KWLD 220754Z AUTO 16006KT 10SM CLR 17/15 A3007 RMK AO2 SLP172 T01720150
Loading
Personal Weather Stations






























Interactive Weather Map
Tropical Storm Tracking
New forecast layout! Learn more

10-Day Weather Forecast

Advertisements
Track Severe Weather on mobile